createdAt,value
2022-12-29T00:03:38.912Z,9.98
2022-12-29T00:07:40.582Z,10.01
2022-12-29T00:11:42.734Z,10.02
2022-12-29T00:15:44.394Z,10.02
2022-12-29T00:20:04.671Z,10.04
2022-12-29T00:24:16.008Z,9.99
2022-12-29T00:28:36.660Z,9.95
2022-12-29T00:32:57.441Z,9.93
2022-12-29T00:36:58.984Z,9.89
2022-12-29T00:41:20.625Z,9.86
2022-12-29T00:45:22.134Z,9.88
2022-12-29T00:49:32.777Z,9.88
2022-12-29T00:53:34.904Z,9.91
2022-12-29T00:57:36.453Z,9.99
2022-12-29T01:01:39.174Z,10.01
2022-12-29T01:05:40.863Z,10.04
2022-12-29T01:10:01.019Z,10.04
2022-12-29T01:14:02.660Z,10.18
2022-12-29T01:18:05.972Z,10.20
2022-12-29T01:22:07.609Z,10.31
2022-12-29T01:26:10.896Z,10.38
2022-12-29T01:30:12.950Z,10.38
2022-12-29T01:34:14.543Z,10.36
2022-12-29T01:38:16.108Z,10.42
2022-12-29T01:42:23.439Z,10.49
2022-12-29T01:46:47.838Z,10.66
2022-12-29T01:50:54.451Z,10.83
2022-12-29T01:54:57.428Z,10.93
2022-12-29T01:59:06.013Z,10.93
2022-12-29T02:03:09.423Z,10.95
2022-12-29T02:07:23.661Z,10.90
2022-12-29T02:11:28.029Z,10.91
2022-12-29T02:15:48.923Z,10.91
2022-12-29T02:20:28.560Z,11.01
2022-12-29T02:24:54.598Z,11.08
2022-12-29T02:29:40.653Z,11.16
2022-12-29T02:33:46.443Z,11.06
2022-12-29T02:38:00.404Z,11.03
2022-12-29T02:42:20.808Z,11.03
2022-12-29T02:46:42.364Z,11.02
2022-12-29T02:51:04.572Z,10.99
2022-12-29T02:55:07.803Z,11.02
2022-12-29T02:59:11.164Z,11.08
2022-12-29T03:03:37.598Z,11.13
2022-12-29T03:08:10.065Z,11.13
2022-12-29T03:13:15.067Z,11.13
2022-12-29T03:17:30.666Z,11.16
2022-12-29T03:21:59.597Z,11.17
2022-12-29T03:26:09.222Z,11.17
2022-12-29T03:30:11.763Z,11.20
2022-12-29T03:34:15.563Z,11.26
2022-12-29T03:38:40.378Z,11.30
2022-12-29T03:42:42.534Z,11.28
2022-12-29T03:46:44.310Z,11.28
2022-12-29T03:50:46.950Z,11.26
2022-12-29T03:54:48.908Z,11.24
2022-12-29T03:58:50.492Z,11.27
2022-12-29T04:03:03.195Z,11.26
2022-12-29T04:07:04.924Z,11.28
2022-12-29T04:11:06.880Z,11.27
2022-12-29T04:15:10.326Z,11.28
2022-12-29T04:19:11.860Z,11.33
2022-12-29T04:23:13.648Z,11.36
2022-12-29T04:27:15.946Z,11.42
2022-12-29T04:31:30.849Z,11.38
2022-12-29T04:35:33.934Z,11.36
2022-12-29T04:39:35.653Z,11.33
2022-12-29T04:43:38.485Z,11.35
2022-12-29T04:48:13.189Z,11.33
2022-12-29T04:52:33.865Z,11.31
2022-12-29T04:56:37.521Z,11.33
2022-12-29T05:00:39.419Z,11.31
2022-12-29T05:04:41.292Z,11.31
2022-12-29T05:08:42.859Z,11.33
2022-12-29T05:12:44.719Z,11.30
2022-12-29T05:16:49.457Z,11.30
2022-12-29T05:20:52.329Z,11.27
2022-12-29T05:24:56.062Z,11.28
2022-12-29T05:28:58.450Z,11.31
2022-12-29T05:33:00.439Z,11.31
2022-12-29T05:37:03.497Z,11.31
2022-12-29T05:41:05.450Z,11.30
2022-12-29T05:45:27.497Z,11.28
2022-12-29T05:50:00.960Z,11.28
2022-12-29T05:54:08.250Z,11.27
2022-12-29T05:58:10.216Z,11.27
2022-12-29T06:02:12.489Z,11.24
2022-12-29T06:06:14.387Z,11.26
2022-12-29T06:10:16.452Z,11.24
2022-12-29T06:14:38.424Z,11.26
2022-12-29T06:18:41.088Z,11.24
2022-12-29T06:22:43.992Z,11.24
2022-12-29T06:26:45.910Z,11.27
2022-12-29T06:30:48.950Z,11.30
2022-12-29T06:34:50.752Z,11.30
2022-12-29T06:38:55.404Z,11.31
2022-12-29T06:42:58.565Z,11.36
2022-12-29T06:47:38.773Z,11.35
2022-12-29T06:51:40.762Z,11.33
2022-12-29T06:55:43.327Z,11.42
2022-12-29T06:59:44.979Z,11.44
2022-12-29T07:03:46.594Z,11.42
2022-12-29T07:07:48.183Z,11.46
2022-12-29T07:11:49.848Z,11.45
2022-12-29T07:15:51.443Z,11.46
2022-12-29T07:19:53.020Z,11.51
2022-12-29T07:23:55.088Z,11.53
2022-12-29T07:27:56.718Z,11.53
2022-12-29T07:31:58.393Z,11.56
2022-12-29T07:36:00.354Z,11.59
2022-12-29T07:40:04.340Z,11.56
2022-12-29T07:44:05.970Z,11.56
2022-12-29T07:48:12.600Z,11.57
2022-12-29T07:52:14.198Z,11.60
2022-12-29T07:56:15.716Z,11.62
2022-12-29T08:00:17.489Z,11.62
2022-12-29T08:04:19.200Z,11.66
2022-12-29T08:08:21.447Z,11.74
2022-12-29T08:12:23.040Z,11.77
2022-12-29T08:16:24.836Z,11.78
2022-12-29T08:20:26.581Z,11.82
2022-12-29T08:24:28.363Z,11.82
2022-12-29T08:28:30.074Z,11.93
2022-12-29T08:32:31.837Z,11.96
2022-12-29T08:36:33.392Z,11.98
2022-12-29T08:40:35.185Z,11.98
2022-12-29T08:44:36.778Z,12.05
2022-12-29T08:48:38.379Z,12.19
2022-12-29T08:52:39.964Z,12.22
2022-12-29T08:56:41.537Z,12.25
2022-12-29T09:00:44.081Z,12.29
2022-12-29T09:04:46.735Z,12.26
2022-12-29T09:08:48.507Z,12.29
2022-12-29T09:12:50.144Z,12.33
2022-12-29T09:17:11.094Z,12.40
2022-12-29T09:21:13.237Z,12.41
2022-12-29T09:25:15.114Z,12.43
2022-12-29T09:29:16.854Z,12.41
2022-12-29T09:33:18.752Z,12.44
2022-12-29T09:37:20.564Z,12.44
2022-12-29T09:41:30.056Z,12.49
2022-12-29T09:45:43.906Z,12.59
2022-12-29T09:49:53.669Z,12.61
2022-12-29T09:54:49.717Z,12.62
2022-12-29T09:59:15.821Z,12.61
2022-12-29T10:03:20.606Z,12.69
2022-12-29T10:07:51.057Z,12.74
2022-12-29T10:12:13.915Z,12.84
2022-12-29T10:16:48.663Z,12.92
2022-12-29T10:21:18.546Z,12.95
2022-12-29T10:25:26.034Z,12.98
2022-12-29T10:29:39.813Z,12.99
2022-12-29T10:33:43.353Z,12.95
2022-12-29T10:37:50.595Z,12.92
2022-12-29T10:42:19.518Z,12.91
2022-12-29T10:46:36.047Z,12.89
2022-12-29T10:50:43.691Z,12.88
2022-12-29T10:55:08.801Z,13.01
2022-12-29T10:59:31.228Z,13.17
2022-12-29T11:03:42.700Z,13.35
2022-12-29T11:07:44.519Z,13.59
2022-12-29T11:11:46.340Z,13.73
2022-12-29T11:15:50.747Z,13.80
2022-12-29T11:19:52.355Z,13.79
2022-12-29T11:24:05.618Z,13.69
2022-12-29T11:28:17.151Z,13.57
2022-12-29T11:32:28.839Z,13.54
2022-12-29T11:36:31.050Z,13.66
2022-12-29T11:40:38.922Z,13.76
2022-12-29T11:44:45.438Z,13.68
2022-12-29T11:48:48.823Z,13.65
2022-12-29T11:52:58.243Z,13.57
2022-12-29T11:57:12.168Z,13.50
2022-12-29T12:01:39.371Z,13.38
2022-12-29T12:05:47.438Z,13.25
2022-12-29T12:10:03.102Z,13.16
2022-12-29T12:14:22.865Z,13.14
2022-12-29T12:19:28.785Z,13.22
2022-12-29T12:23:45.083Z,13.38
2022-12-29T12:28:01.283Z,13.41
2022-12-29T12:32:12.577Z,13.39
2022-12-29T12:36:35.733Z,13.35
2022-12-29T12:41:00.486Z,13.27
2022-12-29T12:45:28.528Z,13.19
2022-12-29T12:49:57.374Z,13.06
2022-12-29T12:54:36.168Z,12.95
2022-12-29T12:59:12.258Z,12.77
2022-12-29T13:03:31.076Z,12.62
2022-12-29T13:08:02.539Z,12.70
2022-12-29T13:12:18.232Z,12.70
2022-12-29T13:16:22.661Z,12.69
2022-12-29T13:20:40.211Z,12.70
2022-12-29T13:24:53.983Z,12.66
2022-12-29T13:29:14.655Z,12.58
2022-12-29T13:33:28.605Z,12.48
2022-12-29T13:37:34.283Z,12.40
2022-12-29T13:41:45.719Z,12.34
2022-12-29T13:45:56.579Z,12.31
2022-12-29T13:50:01.583Z,12.31
2022-12-29T13:54:15.907Z,12.31
2022-12-29T13:58:51.394Z,12.31
2022-12-29T14:03:31.507Z,12.29
2022-12-29T14:07:40.362Z,12.22
2022-12-29T14:11:42.377Z,12.16
2022-12-29T14:15:46.750Z,12.08
2022-12-29T14:19:53.859Z,12.01
2022-12-29T14:23:55.540Z,11.93
2022-12-29T14:27:57.215Z,11.85
2022-12-29T14:31:58.850Z,11.77
2022-12-29T14:36:22.677Z,11.60
2022-12-29T14:40:27.108Z,11.54
2022-12-29T14:44:28.917Z,11.53
2022-12-29T14:48:37.877Z,11.49
2022-12-29T14:53:04.611Z,11.46
2022-12-29T14:57:11.545Z,11.42
2022-12-29T15:01:33.854Z,11.39
2022-12-29T15:05:52.583Z,11.42
2022-12-29T15:10:14.573Z,11.39
2022-12-29T15:14:37.687Z,11.36
2022-12-29T15:18:43.487Z,11.35
2022-12-29T15:22:45.943Z,11.35
2022-12-29T15:26:50.561Z,11.28
2022-12-29T15:30:57.800Z,11.20
2022-12-29T15:35:03.958Z,11.16
2022-12-29T15:39:26.721Z,11.08
2022-12-29T15:43:41.954Z,11.02
2022-12-29T15:47:50.111Z,10.95
2022-12-29T15:51:51.725Z,10.95
2022-12-29T15:55:56.000Z,10.91
2022-12-29T16:00:02.091Z,10.94
2022-12-29T16:04:15.471Z,10.98
2022-12-29T16:08:28.336Z,11.03
2022-12-29T16:12:36.384Z,11.03
2022-12-29T16:16:41.004Z,11.06
2022-12-29T16:20:43.468Z,11.06
2022-12-29T16:24:46.492Z,11.06
2022-12-29T16:28:50.873Z,11.09
2022-12-29T16:32:55.508Z,11.09
2022-12-29T16:36:58.205Z,11.09
2022-12-29T16:41:04.256Z,11.09
2022-12-29T16:45:24.227Z,11.09
2022-12-29T16:49:27.173Z,11.08
2022-12-29T16:53:33.727Z,11.05
2022-12-29T16:57:37.627Z,11.05
2022-12-29T17:01:40.111Z,11.01
2022-12-29T17:05:42.041Z,10.98
2022-12-29T17:09:43.601Z,10.93
2022-12-29T17:13:45.180Z,10.88
2022-12-29T17:17:49.128Z,10.83
2022-12-29T17:21:51.491Z,10.80
2022-12-29T17:25:54.815Z,10.76
2022-12-29T17:30:01.961Z,10.73
2022-12-29T17:34:03.637Z,10.72
2022-12-29T17:38:29.091Z,10.70
2022-12-29T17:42:32.938Z,10.70
2022-12-29T17:46:34.603Z,10.73
2022-12-29T17:50:36.253Z,10.72
2022-12-29T17:54:43.147Z,10.76
2022-12-29T17:58:46.019Z,10.75
2022-12-29T18:02:48.639Z,10.73
2022-12-29T18:06:50.286Z,10.70
2022-12-29T18:10:54.423Z,10.72
2022-12-29T18:14:56.831Z,10.73
2022-12-29T18:18:58.468Z,10.70
2022-12-29T18:23:00.083Z,10.66
2022-12-29T18:27:02.704Z,10.63
2022-12-29T18:31:04.362Z,10.57
2022-12-29T18:35:17.347Z,10.54
2022-12-29T18:39:18.952Z,10.51
2022-12-29T18:43:21.048Z,10.49
2022-12-29T18:47:22.607Z,10.39
2022-12-29T18:51:25.617Z,10.39
2022-12-29T18:55:28.688Z,10.38
2022-12-29T18:59:30.243Z,10.35
2022-12-29T19:03:32.363Z,10.34
2022-12-29T19:07:34.189Z,10.31
2022-12-29T19:11:36.073Z,10.26
2022-12-29T19:15:38.079Z,10.25
2022-12-29T19:19:40.970Z,10.24
2022-12-29T19:23:43.073Z,10.25
2022-12-29T19:27:44.671Z,10.18
2022-12-29T19:31:46.431Z,10.17
2022-12-29T19:35:49.301Z,10.13
2022-12-29T19:39:50.881Z,10.11
2022-12-29T19:43:52.498Z,10.13
2022-12-29T19:47:54.550Z,10.13
2022-12-29T19:51:56.166Z,10.13
2022-12-29T19:55:57.801Z,10.13
2022-12-29T19:59:59.395Z,10.14
2022-12-29T20:04:02.831Z,10.11
2022-12-29T20:08:04.895Z,10.13
2022-12-29T20:12:06.797Z,10.11
2022-12-29T20:16:12.990Z,10.10
2022-12-29T20:20:15.851Z,10.13
2022-12-29T20:24:17.468Z,10.10
2022-12-29T20:28:19.069Z,10.09
2022-12-29T20:32:24.935Z,10.07
2022-12-29T20:36:32.460Z,10.09
2022-12-29T20:40:39.331Z,10.07
2022-12-29T20:44:46.061Z,10.06
2022-12-29T20:48:49.005Z,10.06
2022-12-29T20:52:50.618Z,10.06
2022-12-29T20:56:52.441Z,10.02
2022-12-29T21:00:55.465Z,10.06
2022-12-29T21:05:22.814Z,10.06
2022-12-29T21:09:20.189Z,10.06
2022-12-29T21:13:21.923Z,10.06
2022-12-29T21:17:23.515Z,10.06
2022-12-29T21:21:25.730Z,10.02
2022-12-29T21:25:36.751Z,9.99
2022-12-29T21:29:38.360Z,9.98
2022-12-29T21:33:40.055Z,9.95
2022-12-29T21:37:41.751Z,9.93
2022-12-29T21:41:43.274Z,9.91
2022-12-29T21:45:49.963Z,9.91
2022-12-29T21:49:51.662Z,9.91
2022-12-29T21:54:18.624Z,9.89
2022-12-29T21:58:38.551Z,9.88
2022-12-29T22:02:58.908Z,9.86
2022-12-29T22:07:20.589Z,9.86
2022-12-29T22:11:40.558Z,9.88
2022-12-29T22:15:42.097Z,9.88
2022-12-29T22:19:43.681Z,9.86
2022-12-29T22:23:45.347Z,9.88
2022-12-29T22:27:47.111Z,9.91
2022-12-29T22:31:48.649Z,9.88
2022-12-29T22:35:50.155Z,9.86
2022-12-29T22:39:52.063Z,9.81
2022-12-29T22:43:54.666Z,9.77
2022-12-29T22:47:56.217Z,9.78
2022-12-29T22:51:57.827Z,9.77
2022-12-29T22:56:08.593Z,9.71
2022-12-29T23:00:11.052Z,9.71
2022-12-29T23:04:59.315Z,9.73
2022-12-29T23:08:37.038Z,9.73
2022-12-29T23:12:38.692Z,9.74
2022-12-29T23:16:40.301Z,9.71
2022-12-29T23:20:42.128Z,9.71
2022-12-29T23:24:43.658Z,9.70
2022-12-29T23:28:45.449Z,9.63
2022-12-29T23:32:46.978Z,9.58
2022-12-29T23:36:48.622Z,9.52
2022-12-29T23:40:50.239Z,9.49
2022-12-29T23:44:51.818Z,9.48
2022-12-29T23:48:53.636Z,9.44
2022-12-29T23:52:55.203Z,9.40
2022-12-29T23:56:56.790Z,9.37
